Home > Products > Valid Products > TAF

000
FTUS43 KDTX 261720
TAFDTW
TAF
KDTW 261720Z 2618/2724 36010KT P6SM BKN060
     FM270600 33005KT P6SM BKN050
     FM271000 35005KT P6SM OVC025
     FM271700 35011KT P6SM BKN040=



000
FTUS43 KDTX 261720
TAFMBS
TAF
KMBS 261720Z 2618/2718 01009KT P6SM BKN060
     FM270000 02007KT P6SM BKN050
     FM270700 32005KT P6SM OVC022
     FM271700 35011KT P6SM BKN035=



000
FTUS43 KDTX 261720
TAFFNT
TAF
KFNT 261720Z 2618/2718 36009KT P6SM BKN060
     FM270200 02007KT P6SM BKN050
     FM270800 32005KT P6SM OVC015
     FM271500 35011KT P6SM BKN028=



000
FTUS43 KDTX 261720
TAFDET
TAF
KDET 261720Z 2618/2718 36010KT P6SM BKN060
     FM270600 33005KT P6SM BKN050
     FM271000 35005KT P6SM OVC025
     FM271700 35011KT P6SM BKN040=



000
FTUS43 KDTX 261720
TAFFNT
TAF
KFNT 261720Z 2618/2718 36009KT P6SM BKN060
     FM270200 02007KT P6SM BKN050
     FM270800 32005KT P6SM OVC015
     FM271500 35011KT P6SM BKN028=



000
FTUS43 KDTX 261720
TAFDET
TAF
KDET 261720Z 2618/2718 36010KT P6SM BKN060
     FM270600 33005KT P6SM BKN050
     FM271000 35005KT P6SM OVC025
     FM271700 35011KT P6SM BKN040=



000
FTUS43 KDTX 261720
TAFMBS
TAF
KMBS 261720Z 2618/2718 01009KT P6SM BKN060
     FM270000 02007KT P6SM BKN050
     FM270700 32005KT P6SM OVC022
     FM271700 35011KT P6SM BKN035=



000
FTUS43 KDTX 261720
TAFDTW
TAF
KDTW 261720Z 2618/2724 36010KT P6SM BKN060
     FM270600 33005KT P6SM BKN050
     FM271000 35005KT P6SM OVC025
     FM271700 35011KT P6SM BKN040=



000
FTUS43 KDTX 261507 AAA
TAFDTW
TAF AMD
KDTW 261507Z 2615/2718 02010G18KT P6SM SKC
     FM261900 01009KT P6SM BKN060
     FM270600 33005KT P6SM OVC050
     FM271000 35005KT P6SM OVC025=



000
FTUS43 KDTX 261507 AAA
TAFDTW
TAF AMD
KDTW 261507Z 2615/2718 02010G18KT P6SM SKC
     FM261900 01009KT P6SM BKN060
     FM270600 33005KT P6SM OVC050
     FM271000 35005KT P6SM OVC025=



000
FTUS43 KDTX 261120
TAFMBS
TAF
KMBS 261120Z 2612/2712 34006KT P6SM SKC
     FM261600 01009KT P6SM BKN045
     FM270000 02007KT P6SM OVC040
     FM271000 32005KT P6SM OVC025=



000
FTUS43 KDTX 261120
TAFDTW
TAF
KDTW 261120Z 2612/2718 01006KT P6SM SKC
     FM261900 01009KT P6SM BKN060
     FM270600 33005KT P6SM OVC050
     FM271000 35005KT P6SM OVC025=



000
FTUS43 KDTX 261120
TAFDET
TAF
KDET 261120Z 2612/2712 02006KT P6SM SKC
     FM261900 01009KT P6SM BKN060
     FM270600 33005KT P6SM OVC050
     FM271000 35005KT P6SM OVC025=



000
FTUS43 KDTX 261120
TAFFNT
TAF
KFNT 261120Z 2612/2712 31005KT P6SM SKC
     FM261700 36009KT P6SM BKN040
     FM270000 02007KT P6SM OVC040
     FM270800 32005KT P6SM OVC015=



000
FTUS43 KDTX 260525
TAFDET
TAF
KDET 260525Z 2606/2706 01010KT P6SM BKN120
     FM261000 36006KT P6SM SKC
     FM261700 01009KT P6SM BKN060=



000
FTUS43 KDTX 260525
TAFFNT
TAF
KFNT 260525Z 2606/2706 36006KT P6SM SKC
     FM261700 36009KT P6SM BKN050=



000
FTUS43 KDTX 260525
TAFMBS
TAF
KMBS 260525Z 2606/2706 01006KT P6SM SCT070
     FM261600 01009KT P6SM BKN045=



000
FTUS43 KDTX 260525
TAFDTW
TAF
KDTW 260525Z 2606/2712 01010KT P6SM BKN120
     FM261000 36006KT P6SM SKC
     FM261800 01009KT P6SM BKN060
     FM270800 33007KT P6SM BKN035=



000
FTUS43 KDTX 260306 AAA
TAFMBS
TAF AMD
KMBS 260306Z 2603/2624 02009KT P6SM SCT100
     FM260400 01006KT P6SM SKC
     FM261600 03009KT P6SM BKN045=



000
FTUS43 KDTX 260306 AAA
TAFDTW
TAF AMD
KDTW 260306Z 2603/2706 01010KT P6SM BKN120
     FM260800 36006KT P6SM SKC
     FM261800 01009KT P6SM BKN060=



000
FTUS43 KDTX 252320
TAFDTW
TAF
KDTW 252320Z 2600/2706 04010KT P6SM BKN120
     FM260500 36006KT P6SM SKC
     FM261800 01009KT P6SM BKN060=



000
FTUS43 KDTX 252320
TAFMBS
TAF
KMBS 252320Z 2600/2624 05013KT P6SM SCT100
     FM260400 01006KT P6SM SKC
     FM261600 03009KT P6SM BKN045=



000
FTUS43 KDTX 252320
TAFFNT
TAF
KFNT 252320Z 2600/2624 04013KT P6SM SCT100
     FM260500 36006KT P6SM SKC
     FM261700 01009KT P6SM BKN050=



000
FTUS43 KDTX 252320
TAFDET
TAF
KDET 252320Z 2600/2624 04010KT P6SM BKN120
     FM260500 36006KT P6SM SKC
     FM261700 01009KT P6SM BKN060=



000
FTUS43 KDTX 252320
TAFFNT
TAF
KFNT 252320Z 2600/2624 04013KT P6SM SCT100
     FM260500 36006KT P6SM SKC
     FM261700 01009KT P6SM BKN050=



000
FTUS43 KDTX 252320
TAFDET
TAF
KDET 252320Z 2600/2624 04010KT P6SM BKN120
     FM260500 36006KT P6SM SKC
     FM261700 01009KT P6SM BKN060=



000
FTUS43 KDTX 252320
TAFDTW
TAF
KDTW 252320Z 2600/2706 04010KT P6SM BKN120
     FM260500 36006KT P6SM SKC
     FM261800 01009KT P6SM BKN060=



000
FTUS43 KDTX 252320
TAFMBS
TAF
KMBS 252320Z 2600/2624 05013KT P6SM SCT100
     FM260400 01006KT P6SM SKC
     FM261600 03009KT P6SM BKN045=



000
FTUS43 KDTX 252053 AAA
TAFDTW
TAF AMD
KDTW 252053Z 2521/2624 07008KT P6SM BKN120
     FM252300 04010KT P6SM SCT150
     FM260500 36006KT P6SM SKC
     FM261700 34009KT P6SM OVC060=



000
FTUS43 KDTX 251720
TAFMBS
TAF
KMBS 251720Z 2518/2618 07012KT P6SM BKN120
     FM252000 05013KT P6SM SCT150
     FM260400 01006KT P6SM SKC
     FM261400 35009KT P6SM OVC045=



000
FTUS43 KDTX 251720
TAFDTW
TAF
KDTW 251720Z 2518/2624 07008KT P6SM BKN120
     FM252300 04010KT P6SM SCT150
     FM260500 36006KT P6SM SKC
     FM261700 34009KT P6SM OVC060=



000
FTUS43 KDTX 251720
TAFDET
TAF
KDET 251720Z 2518/2618 07009KT P6SM BKN120
     FM252300 04010KT P6SM SCT150
     FM260500 36006KT P6SM SKC
     FM261700 34009KT P6SM OVC060=



000
FTUS43 KDTX 251720
TAFMBS
TAF
KMBS 251720Z 2518/2618 07012KT P6SM BKN120
     FM252000 05013KT P6SM SCT150
     FM260400 01006KT P6SM SKC
     FM261400 35009KT P6SM OVC045=



000
FTUS43 KDTX 251720
TAFDTW
TAF
KDTW 251720Z 2518/2624 07008KT P6SM BKN120
     FM252300 04010KT P6SM SCT150
     FM260500 36006KT P6SM SKC
     FM261700 34009KT P6SM OVC060=



000
FTUS43 KDTX 251720
TAFFNT
TAF
KFNT 251720Z 2518/2618 08012KT P6SM BKN120
     FM252100 04013KT P6SM SCT150
     FM260500 36006KT P6SM SKC
     FM261500 34009KT P6SM OVC050=



000
FTUS43 KDTX 251720
TAFDET
TAF
KDET 251720Z 2518/2618 07009KT P6SM BKN120
     FM252300 04010KT P6SM SCT150
     FM260500 36006KT P6SM SKC
     FM261700 34009KT P6SM OVC060=



000
FTUS43 KDTX 251426 AAA
TAFDTW
TAF AMD
KDTW 251426Z 2514/2618 08008KT P6SM SCT060 OVC090
     FM251900 06009KT P6SM OVC100
     FM260000 04010KT P6SM SCT150
     FM260600 01006KT P6SM SKC=



000
FTUS43 KDTX 251426 AAA
TAFDTW
TAF AMD
KDTW 251426Z 2514/2618 08008KT P6SM SCT060 OVC090
     FM251900 06009KT P6SM OVC100
     FM260000 04010KT P6SM SCT150
     FM260600 01006KT P6SM SKC=



000
FTUS43 KDTX 251121
TAFDET
TAF
KDET 251121Z 2512/2612 10006KT P6SM SCT045 OVC060
     FM251900 07008KT P6SM OVC100
     FM260000 04010KT P6SM SCT150
     FM260600 01006KT P6SM SKC=



000
FTUS43 KDTX 251121
TAFDTW
TAF
KDTW 251121Z 2512/2618 10006KT P6SM SCT045 OVC060
     FM251900 07008KT P6SM OVC100
     FM260000 04010KT P6SM SCT150
     FM260600 01006KT P6SM SKC=



000
FTUS43 KDTX 251121
TAFFNT
TAF
KFNT 251121Z 2512/2612 14006KT P6SM OVC100
     FM251900 08008KT P6SM OVC120
     FM252100 04010KT P6SM SCT150
     FM260300 01006KT P6SM SKC=



000
FTUS43 KDTX 251121
TAFMBS
TAF
KMBS 251121Z 2512/2612 07006KT P6SM OVC150
     FM251900 07009KT P6SM OVC150
     FM252100 05012KT P6SM SCT150
     FM260300 01006KT P6SM SKC=



000
FTUS43 KDTX 251121
TAFFNT
TAF
KFNT 251121Z 2512/2612 14006KT P6SM OVC100
     FM251900 08008KT P6SM OVC120
     FM252100 04010KT P6SM SCT150
     FM260300 01006KT P6SM SKC=



000
FTUS43 KDTX 251121
TAFDTW
TAF
KDTW 251121Z 2512/2618 10006KT P6SM SCT045 OVC060
     FM251900 07008KT P6SM OVC100
     FM260000 04010KT P6SM SCT150
     FM260600 01006KT P6SM SKC=



000
FTUS43 KDTX 251121
TAFDET
TAF
KDET 251121Z 2512/2612 10006KT P6SM SCT045 OVC060
     FM251900 07008KT P6SM OVC100
     FM260000 04010KT P6SM SCT150
     FM260600 01006KT P6SM SKC=



000
FTUS43 KDTX 251121
TAFMBS
TAF
KMBS 251121Z 2512/2612 07006KT P6SM OVC150
     FM251900 07009KT P6SM OVC150
     FM252100 05012KT P6SM SCT150
     FM260300 01006KT P6SM SKC=



000
FTUS43 KDTX 250720 AAA
TAFDTW
TAF AMD
KDTW 250720Z 2507/2612 19004KT P6SM -SHRA OVC025
     FM251000 11006KT P6SM OVC060
     FM251900 07008KT P6SM OVC100
     FM260000 04010KT P6SM BKN150
     FM260600 01008KT P6SM SCT150=



000
FTUS43 KDTX 250527
TAFFNT
TAF
KFNT 250527Z 2506/2606 12004KT P6SM BKN070 OVC150
     FM251000 14006KT P6SM OVC080
     FM251900 08008KT P6SM OVC120
     FM252300 04010KT P6SM BKN150=



000
FTUS43 KDTX 250527
TAFDTW
TAF
KDTW 250527Z 2506/2612 10004KT P6SM -SHRA BKN060 OVC120
     FM251000 11006KT P6SM OVC080
     FM251900 07008KT P6SM OVC100
     FM260000 04010KT P6SM BKN150
     FM260600 01008KT P6SM SCT150=



000
FTUS43 KDTX 250527
TAFDET
TAF
KDET 250527Z 2506/2606 10004KT P6SM BKN080 OVC150
     FM251000 11006KT P6SM OVC090
     FM251900 07008KT P6SM OVC120
     FM260000 04010KT P6SM BKN150=



000
FTUS43 KDTX 250527
TAFMBS
TAF
KMBS 250527Z 2506/2606 05008KT P6SM BKN100 OVC150
     FM251000 12006KT P6SM OVC100
     FM251900 07009KT P6SM OVC150
     FM252200 05012KT P6SM BKN150=



000
FTUS43 KDTX 250222 AAA
TAFDTW
TAF AMD
KDTW 250222Z 2502/2606 00000KT P6SM SCT100 BKN200
     FM250600 10004KT P6SM -SHRA BKN060 OVC120
     FM251000 11006KT P6SM OVC100
     FM252100 06009KT P6SM OVC080=



000
FTUS43 KDTX 242320
TAFDET
TAF
KDET 242320Z 2500/2524 08005KT P6SM SCT150
     FM250300 09005KT P6SM BKN150
     FM250700 11004KT P6SM BKN060 OVC120
     FM251100 12006KT P6SM OVC100
     FM252100 07009KT P6SM OVC080=



000
FTUS43 KDTX 242320
TAFDTW
TAF
KDTW 242320Z 2500/2606 06005KT P6SM SCT150
     FM250300 08005KT P6SM BKN150
     FM250700 10004KT P6SM -SHRA BKN060 OVC120
     FM251100 11006KT P6SM OVC100
     FM252100 06009KT P6SM OVC080=



000
FTUS43 KDTX 242320
TAFMBS
TAF
KMBS 242320Z 2500/2524 07005KT P6SM SCT150
     FM250300 11005KT P6SM BKN150
     FM250700 13004KT P6SM BKN100 OVC200
     FM251100 14006KT P6SM OVC150
     FM252100 06011KT P6SM OVC120=



000
FTUS43 KDTX 242320
TAFFNT
TAF
KFNT 242320Z 2500/2524 09005KT P6SM SCT150
     FM250300 11005KT P6SM BKN150
     FM250700 13004KT P6SM BKN080 OVC120
     FM251100 14006KT P6SM OVC150
     FM252100 07009KT P6SM OVC100=



000
FTUS43 KDTX 242057 AAB
TAFDTW
TAF AMD
KDTW 242057Z 2421/2524 27007KT P6SM FEW250
     FM250000 09004KT P6SM BKN150
     FM250800 05004KT P6SM OVC080 PROB30 2518/2522 5SM -SHRA OVC050=



000
FTUS43 KDTX 241900 AAA
TAFDTW
TAF AMD
KDTW 241900Z 2419/2524 30010KT P6SM SKC
     FM242100 VRB05KT P6SM SCT150
     FM250000 09004KT P6SM BKN100
     FM251000 05004KT P6SM OVC070 PROB30 2518/2522 5SM -SHRA OVC050=



000
FTUS43 KDTX 241720
TAFFNT
TAF
KFNT 241720Z 2418/2518 32006KT P6SM SCT150
     FM242300 05005KT P6SM BKN120
     FM250400 05004KT P6SM OVC090=



000
FTUS43 KDTX 241720
TAFDTW
TAF
KDTW 241720Z 2418/2524 VRB05KT P6SM SCT150
     FM250000 09004KT P6SM BKN100
     FM251000 05004KT P6SM OVC070 PROB30 2518/2522 5SM -SHRA OVC050=



000
FTUS43 KDTX 241720
TAFMBS
TAF
KMBS 241720Z 2418/2518 32006KT P6SM SCT150
     FM242200 05008KT P6SM BKN120
     FM250400 VRB05KT P6SM BKN090=



000
FTUS43 KDTX 241720
TAFDET
TAF
KDET 241720Z 2418/2518 VRB05KT P6SM SCT150
     FM250000 09004KT P6SM BKN100
     FM251000 05004KT P6SM OVC070=



000
FTUS43 KDTX 241720
TAFDTW
TAF
KDTW 241720Z 2418/2524 VRB05KT P6SM SCT150
     FM250000 09004KT P6SM BKN100
     FM251000 05004KT P6SM OVC070 PROB30 2518/2522 5SM -SHRA OVC050=



000
FTUS43 KDTX 241720
TAFDET
TAF
KDET 241720Z 2418/2518 VRB05KT P6SM SCT150
     FM250000 09004KT P6SM BKN100
     FM251000 05004KT P6SM OVC070=



000
FTUS43 KDTX 241720
TAFFNT
TAF
KFNT 241720Z 2418/2518 32006KT P6SM SCT150
     FM242300 05005KT P6SM BKN120
     FM250400 05004KT P6SM OVC090=



000
FTUS43 KDTX 241720
TAFMBS
TAF
KMBS 241720Z 2418/2518 32006KT P6SM SCT150
     FM242200 05008KT P6SM BKN120
     FM250400 VRB05KT P6SM BKN090=



000
FTUS43 KDTX 241431 AAA
TAFDTW
TAF AMD
KDTW 241431Z 2415/2518 VRB04KT P6SM FEW250
     FM241800 31007KT P6SM SCT150
     FM250000 04008KT P6SM BKN150
     FM250600 09004KT P6SM BKN100
     FM251100 05004KT P6SM OVC060=



000
FTUS43 KDTX 241431 AAA
TAFDTW
TAF AMD
KDTW 241431Z 2415/2518 VRB04KT P6SM FEW250
     FM241800 31007KT P6SM SCT150
     FM250000 04008KT P6SM BKN150
     FM250600 09004KT P6SM BKN100
     FM251100 05004KT P6SM OVC060=



000
FTUS43 KDTX 241123
TAFDET
TAF
KDET 241123Z 2412/2512 27004KT P6SM SKC
     FM241400 30008KT P6SM SCT250
     FM241800 31007KT P6SM SCT150
     FM250000 04008KT P6SM BKN150
     FM250600 09004KT P6SM BKN100
     FM251100 05004KT P6SM OVC060=



000
FTUS43 KDTX 241123
TAFDTW
TAF
KDTW 241123Z 2412/2518 26004KT P6SM SKC
     FM241400 30008KT P6SM SCT250
     FM241800 31007KT P6SM SCT150
     FM250000 04008KT P6SM BKN150
     FM250600 09004KT P6SM BKN100
     FM251100 05004KT P6SM OVC060=



000
FTUS43 KDTX 241123
TAFDET
TAF
KDET 241123Z 2412/2512 27004KT P6SM SKC
     FM241400 30008KT P6SM SCT250
     FM241800 31007KT P6SM SCT150
     FM250000 04008KT P6SM BKN150
     FM250600 09004KT P6SM BKN100
     FM251100 05004KT P6SM OVC060=



000
FTUS43 KDTX 241123
TAFFNT
TAF
KFNT 241123Z 2412/2512 29004KT P6SM SKC
     FM241400 31011KT P6SM SCT250
     FM241800 32007KT P6SM SCT150
     FM242200 05006KT P6SM BKN150
     FM250400 11006KT P6SM BKN100
     FM251100 05004KT P6SM OVC090=



000
FTUS43 KDTX 241123
TAFDTW
TAF
KDTW 241123Z 2412/2518 26004KT P6SM SKC
     FM241400 30008KT P6SM SCT250
     FM241800 31007KT P6SM SCT150
     FM250000 04008KT P6SM BKN150
     FM250600 09004KT P6SM BKN100
     FM251100 05004KT P6SM OVC060=



000
FTUS43 KDTX 241123
TAFMBS
TAF
KMBS 241123Z 2412/2512 35006KT P6SM SKC
     FM241400 30008KT P6SM SCT250
     FM241800 32007KT P6SM SCT150
     FM242200 05011KT P6SM BKN150
     FM250400 11006KT P6SM BKN100
     FM251100 05004KT P6SM OVC090=



000
FTUS43 KDTX 241123
TAFFNT
TAF
KFNT 241123Z 2412/2512 29004KT P6SM SKC
     FM241400 31011KT P6SM SCT250
     FM241800 32007KT P6SM SCT150
     FM242200 05006KT P6SM BKN150
     FM250400 11006KT P6SM BKN100
     FM251100 05004KT P6SM OVC090=



000
FTUS43 KDTX 241123
TAFMBS
TAF
KMBS 241123Z 2412/2512 35006KT P6SM SKC
     FM241400 30008KT P6SM SCT250
     FM241800 32007KT P6SM SCT150
     FM242200 05011KT P6SM BKN150
     FM250400 11006KT P6SM BKN100
     FM251100 05004KT P6SM OVC090=



000
FTUS43 KDTX 240904 AAA
TAFDTW
TAF AMD
KDTW 240904Z 2409/2512 25004KT P6SM SKC
     FM241400 30008KT P6SM SCT250
     FM241800 31007KT P6SM SCT150
     FM250000 04008KT P6SM BKN150
     FM250600 09004KT P6SM BKN100=



000
FTUS43 KDTX 240904 AAA
TAFDTW
TAF AMD
KDTW 240904Z 2409/2512 25004KT P6SM SKC
     FM241400 30008KT P6SM SCT250
     FM241800 31007KT P6SM SCT150
     FM250000 04008KT P6SM BKN150
     FM250600 09004KT P6SM BKN100=



000
FTUS43 KDTX 240528
TAFMBS
TAF
KMBS 240528Z 2406/2506 29006KT P6SM SKC
     FM241400 30008KT P6SM SCT250
     FM241800 32007KT P6SM SCT150
     FM242200 05011KT P6SM BKN150
     FM250400 11006KT P6SM BKN100=



000
FTUS43 KDTX 240528
TAFDTW
TAF
KDTW 240528Z 2406/2512 27004KT P6SM SKC
     FM241400 30008KT P6SM SCT250
     FM241800 31007KT P6SM SCT150
     FM250000 04008KT P6SM BKN150
     FM250600 09004KT P6SM BKN100=



000
FTUS43 KDTX 240528
TAFDET
TAF
KDET 240528Z 2406/2506 28004KT P6SM SKC
     FM241400 31008KT P6SM SCT250
     FM241800 31007KT P6SM SCT150
     FM250000 04008KT P6SM BKN150=



000
FTUS43 KDTX 240528
TAFFNT
TAF
KFNT 240528Z 2406/2506 25004KT P6SM SKC
     FM241400 31011KT P6SM SCT250
     FM241800 32007KT P6SM SCT150
     FM242200 05006KT P6SM BKN150
     FM250400 11006KT P6SM BKN100=



000
FTUS43 KDTX 240528
TAFMBS
TAF
KMBS 240528Z 2406/2506 29006KT P6SM SKC
     FM241400 30008KT P6SM SCT250
     FM241800 32007KT P6SM SCT150
     FM242200 05011KT P6SM BKN150
     FM250400 11006KT P6SM BKN100=



000
FTUS43 KDTX 240259 AAA
TAFDTW
TAF AMD
KDTW 240259Z 2403/2506 27005KT P6SM SKC
     FM241400 30008KT P6SM SCT250
     FM241800 31007KT P6SM SCT150
     FM250000 04008KT P6SM BKN120=



000
FTUS43 KDTX 232320
TAFMBS
TAF
KMBS 232320Z 2400/2424 29006KT P6SM SKC
     FM241400 30008KT P6SM SCT250
     FM241800 32007KT P6SM SCT150
     FM242200 05011KT P6SM BKN120=



000
FTUS43 KDTX 232320
TAFDTW
TAF
KDTW 232320Z 2400/2506 29011KT P6SM BKN050
     FM240200 30005KT P6SM SKC
     FM241400 30008KT P6SM SCT250
     FM241800 31007KT P6SM SCT150
     FM250000 04008KT P6SM BKN120=



000
FTUS43 KDTX 232320
TAFDET
TAF
KDET 232320Z 2400/2424 30010KT P6SM BKN050
     FM240200 29004KT P6SM SKC
     FM241400 31008KT P6SM SCT250
     FM241800 31007KT P6SM SCT150=



000
FTUS43 KDTX 232320
TAFFNT
TAF
KFNT 232320Z 2400/2424 29010KT P6SM BKN050
     FM240100 30004KT P6SM SKC
     FM241400 30010KT P6SM SCT250
     FM241800 32007KT P6SM SCT150=



000
FTUS43 KDTX 232105 AAB
TAFDTW
TAF AMD
KDTW 232105Z 2321/2424 29012G20KT P6SM OVC050
     FM240000 29011KT P6SM BKN050
     FM240400 30005KT P6SM SKC
     FM241400 30008KT P6SM SCT250
     FM241800 30007KT P6SM BKN120=



000
FTUS43 KDTX 231954 AAA
TAFDTW
TAF AMD
KDTW 231954Z 2320/2424 30014G22KT P6SM OVC050
     FM240000 29011KT P6SM BKN050
     FM240400 30005KT P6SM SKC
     FM241400 30008KT P6SM SCT250
     FM241800 30007KT P6SM BKN120=



000
FTUS43 KDTX 231954 AAA
TAFDTW
TAF AMD
KDTW 231954Z 2320/2424 30014G22KT P6SM OVC050
     FM240000 29011KT P6SM BKN050
     FM240400 30005KT P6SM SKC
     FM241400 30008KT P6SM SCT250
     FM241800 30007KT P6SM BKN120=



    US Dept of Commerce
    National Oceanic and Atmospheric Administration
    National Weather Service
    1325 East West Highway
    Silver Spring, MD 20910
    Page Author: NWS Internet Services Team
Disclaimer
Information Quality
Credits
Glossary
Privacy Policy
Freedom of Information Act (FOIA)
About Us
Career Opportunities